To NAV CANADA Home Page Login to a new session Search on AWWS site Feedback and Comments Disclaimer Vers la page française équivalente Tips FAQ What's new on the site To the Forecasts and Observations / NOTAM section To "File a Flight Plan" website Publications and other links Update of the User's profile FIC Telephone Numbers My Weather Data Folder Route Weather Data Regional Weather Data Local Weather Data To the Forecasts and Observations / NOTAM section
Request Generated 05/25/2017 at 01:11:04 UTC . Weather information available at that time is displayed.

METAR/TAF

SUDBURY/ON    

METAR CYSB 250100Z 03013KT 15SM FEW064 OVC150 14/10 A2975 RMK SC2AC6
SLP082 DENSITY ALT 1400FT=
METAR CYSB 250000Z 04010KT 15SM -SHRA SCT040 OVC100 14/11 A2974 RMK
SC3AC5 SLP079 DENSITY ALT 1400FT=
METAR CYSB 242300Z 02008KT 15SM -SHRA BKN040 OVC100 16/10 A2975 RMK
SC6AS2 CNCTV CLD EMBD SLP080 DENSITY ALT 1600FT=

TAF CYSB 241940Z 2420/2508 02010KT P6SM -RA SCT010 BKN120 TEMPO
2420/2423 5SM -RA BR BKN010 OVC120
FM242300 05008KT P6SM BKN030 TEMPO 2423/2508 BKN020 PROB30
2423/2508 BKN006
RMK NXT FCST BY 250200Z=
Your time UTC time
Weather data provided by Environment Canada and NAV CANADA